Time;durP1;ratioP1;P1;durP2;ratioP2;P2;SDS_P1;SDS_P2;PMS_P1;PMS_P2;Temp;Humidity;BMP_temperature;BMP_pressure;BME280_temperature;BME280_humidity;BME280_pressure;Samples;Min_cycle;Max_cycle;Signal;HPM_P1;HPM_P2
2022/06/20 00:00:48;;;;;;;;;;;;;;;-142.75;100.00;77064.41;4930774;28;19922;-68
2022/06/20 00:03:21;;;;;;;;;;;;;;;-142.75;100.00;77066.38;4931052;28;20009;-67
2022/06/20 00:05:46;;;;;;;;;;;;;;;-142.75;100.00;77056.53;4929762;28;19919;-68
2022/06/20 00:08:11;;;;;;;;;;;;;;;-142.75;100.00;77060.47;4930419;28;19941;-67
2022/06/20 00:10:39;;;;;;;;;;;;;;;-142.75;100.00;77066.38;4930429;28;19985;-68
2022/06/20 00:13:04;;;;;;;;;;;;;;;-142.75;100.00;77074.25;4994957;28;19917;-67
2022/06/20 00:15:34;;;;;;;;;;;;;;;-142.75;100.00;77070.31;4998594;28;19919;-67
2022/06/20 00:18:00;;;;;;;;;;;;;;;-142.75;100.00;77078.19;4993363;28;19927;-66
2022/06/20 00:20:26;;;;;;;;;;;;;;;-142.75;100.00;77095.91;5030622;28;19928;-66
2022/06/20 00:22:51;;;;;;;;;;;;;;;-142.75;100.00;77105.75;5030856;28;19971;-66
2022/06/20 00:25:16;;;;;;;;;;;;;;;-142.75;100.00;77097.88;5029972;28;19995;-66
2022/06/20 00:27:43;;;;;;;;;;;;;;;-142.75;100.00;77093.94;5030020;28;19921;-65
2022/06/20 00:30:10;;;;;;;;;;;;;;;-142.75;100.00;77086.06;4966215;28;19949;-66
2022/06/20 00:32:35;;;;;;;;;;;;;;;-142.75;100.00;77099.84;4933497;28;19918;-65
2022/06/20 00:35:02;;;;;;;;;;;;;;;-142.75;100.00;77109.69;4934075;28;19919;-66
2022/06/20 00:37:27;;;;;;;;;;;;;;;-142.75;100.00;77105.75;4934522;28;20319;-65
2022/06/20 00:39:53;;;;;;;;;;;;;;;-142.75;100.00;77111.66;4933583;28;19919;-66
2022/06/20 00:42:18;;;;;;;;;;;;;;;-142.75;100.00;77113.63;4934350;28;19919;-66
2022/06/20 00:44:45;;;;;;;;;;;;;;;-142.75;100.00;77107.72;4934370;28;19950;-66
2022/06/20 00:47:12;;;;;;;;;;;;;;;-142.75;100.00;77113.63;4934003;28;19919;-65
2022/06/20 00:49:42;;;;;;;;;;;;;;;-142.75;100.00;77107.72;4933131;28;19918;-66
2022/06/20 00:52:28;;;;;;;;;;;;;;;-142.75;100.00;77109.69;4934091;28;20311;-66
2022/06/20 00:54:57;;;;;;;;;;;;;;;-142.75;100.00;77107.72;4933897;28;20454;-66
2022/06/20 00:57:28;;;;;;;;;;;;;;;-142.75;100.00;77117.56;4932670;28;20440;-66
2022/06/20 01:00:10;;;;;;;;;;;;;;;-142.75;100.00;77135.28;5032964;28;20387;-66
2022/06/20 01:02:38;;;;;;;;;;;;;;;-142.75;100.00;77125.44;5034289;28;19924;-64
2022/06/20 01:05:07;;;;;;;;;;;;;;;-142.75;100.00;77137.25;5033464;28;20037;-66
2022/06/20 01:07:35;;;;;;;;;;;;;;;-142.75;100.00;77145.13;4955545;28;19927;-66
2022/06/20 01:10:01;;;;;;;;;;;;;;;-142.75;100.00;77145.13;4933201;28;19927;-66
2022/06/20 01:12:28;;;;;;;;;;;;;;;-142.75;100.00;77158.91;4933805;28;20405;-67
2022/06/20 01:14:53;;;;;;;;;;;;;;;-142.75;100.00;77154.97;4947467;28;21958;-66
2022/06/20 01:17:30;;;;;;;;;;;;;;;-142.75;100.00;77156.94;5033103;28;19918;-66
2022/06/20 01:19:58;;;;;;;;;;;;;;;-142.75;100.00;77160.88;5032857;28;19921;-66
2022/06/20 01:22:29;;;;;;;;;;;;;;;-142.75;100.00;77149.06;5032733;28;19917;-67
2022/06/20 01:25:23;;;;;;;;;;;;;;;-142.75;100.00;77141.19;5032965;28;19924;-66
2022/06/20 01:27:50;;;;;;;;;;;;;;;-142.75;100.00;77137.25;5023690;28;19925;-66
2022/06/20 01:30:17;;;;;;;;;;;;;;;-142.75;100.00;77137.25;5032530;28;19929;-67
2022/06/20 01:32:43;;;;;;;;;;;;;;;-142.75;100.00;77139.22;5033622;28;19921;-66
2022/06/20 01:35:11;;;;;;;;;;;;;;;-142.75;100.00;77127.41;5032900;28;19917;-66
2022/06/20 01:37:39;;;;;;;;;;;;;;;-142.75;100.00;77133.31;5032884;28;19924;-66
2022/06/20 01:40:06;;;;;;;;;;;;;;;-142.75;100.00;77135.28;5032787;28;19924;-67
2022/06/20 01:42:32;;;;;;;;;;;;;;;-142.75;100.00;77135.28;5032085;28;20016;-67
2022/06/20 01:45:04;;;;;;;;;;;;;;;-142.75;100.00;77133.31;5032710;28;20401;-67
2022/06/20 01:47:29;;;;;;;;;;;;;;;-142.75;100.00;77127.41;5032758;28;19917;-67
2022/06/20 01:52:37;;;;;;;;;;;;;;;-142.75;100.00;77117.56;4965725;28;19926;-70
2022/06/20 01:55:07;;;;;;;;;;;;;;;-142.75;100.00;77121.50;5067866;28;19920;-71
2022/06/20 01:57:35;;;;;;;;;;;;;;;-142.75;100.00;77117.56;5071140;28;19999;-70
2022/06/20 02:00:03;;;;;;;;;;;;;;;-142.75;100.00;77117.56;5070700;28;19920;-69
2022/06/20 02:02:31;;;;;;;;;;;;;;;-142.75;100.00;77111.66;5071540;28;20297;-69
2022/06/20 02:04:56;;;;;;;;;;;;;;;-142.75;100.00;77105.75;5071315;28;20448;-69
2022/06/20 02:07:22;;;;;;;;;;;;;;;-142.75;100.00;77103.78;5070505;28;19917;-71
2022/06/20 02:09:47;;;;;;;;;;;;;;;-142.75;100.00;77093.94;5070577;28;19916;-68
2022/06/20 02:12:15;;;;;;;;;;;;;;;-142.75;100.00;77101.81;5069425;28;19920;-69
2022/06/20 02:14:44;;;;;;;;;;;;;;;-142.75;100.00;77101.81;5070793;28;19935;-70
2022/06/20 02:17:14;;;;;;;;;;;;;;;-142.75;100.00;77111.66;5070737;28;20405;-69
2022/06/20 02:19:43;;;;;;;;;;;;;;;-142.75;100.00;77119.53;5070161;28;19998;-69
2022/06/20 02:22:09;;;;;;;;;;;;;;;-142.75;100.00;77123.47;5070696;28;19939;-71
2022/06/20 02:24:38;;;;;;;;;;;;;;;-142.75;100.00;77125.44;5070596;28;20469;-71
2022/06/20 02:27:07;;;;;;;;;;;;;;;-142.75;100.00;77135.28;5070472;28;19916;-69
2022/06/20 02:29:32;;;;;;;;;;;;;;;-142.75;100.00;77125.44;5070291;28;19923;-69
2022/06/20 02:32:12;;;;;;;;;;;;;;;-142.75;100.00;77131.34;5068855;28;20290;-69
2022/06/20 02:34:38;;;;;;;;;;;;;;;-142.75;100.00;77143.16;5071135;28;19916;-71
2022/06/20 02:37:09;;;;;;;;;;;;;;;-142.75;100.00;77149.06;5070408;28;19918;-69
2022/06/20 02:39:36;;;;;;;;;;;;;;;-142.75;100.00;77168.75;5069988;28;19920;-69
2022/06/20 02:42:03;;;;;;;;;;;;;;;-142.75;100.00;77176.63;5036407;28;19918;-69
2022/06/20 02:44:29;;;;;;;;;;;;;;;-142.75;100.00;77178.59;4969164;28;19922;-68
2022/06/20 02:46:55;;;;;;;;;;;;;;;-142.75;100.00;77168.75;4969158;28;20012;-71
2022/06/20 02:49:22;;;;;;;;;;;;;;;-142.75;100.00;77174.66;4968923;28;19918;-70
2022/06/20 02:51:52;;;;;;;;;;;;;;;-142.75;100.00;77184.50;4969034;28;20055;-69
2022/06/20 02:54:19;;;;;;;;;;;;;;;-142.75;100.00;77192.38;4967482;28;19972;-70
2022/06/20 02:56:51;;;;;;;;;;;;;;;-142.75;100.00;77196.31;4967713;28;19922;-69
2022/06/20 02:59:22;;;;;;;;;;;;;;;-142.75;100.00;77192.38;4968908;28;19918;-69
2022/06/20 03:01:53;;;;;;;;;;;;;;;-142.75;100.00;77196.31;4969094;28;19918;-69
2022/06/20 03:04:19;;;;;;;;;;;;;;;-142.75;100.00;77206.16;4969697;28;19918;-69
2022/06/20 03:06:47;;;;;;;;;;;;;;;-142.75;100.00;77212.06;4969039;28;20359;-69
2022/06/20 03:09:14;;;;;;;;;;;;;;;-142.75;100.00;77219.94;4968714;28;19918;-69
2022/06/20 03:11:39;;;;;;;;;;;;;;;-142.75;100.00;77217.97;4968757;28;19922;-67
2022/06/20 03:14:06;;;;;;;;;;;;;;;-142.75;100.00;77217.97;4968943;28;19918;-69
2022/06/20 03:16:32;;;;;;;;;;;;;;;-142.75;100.00;77219.94;4969061;28;19919;-69
2022/06/20 03:18:59;;;;;;;;;;;;;;;-142.75;100.00;77217.97;5065687;28;20361;-69
2022/06/20 03:21:27;;;;;;;;;;;;;;;-142.75;100.00;77217.97;5069009;28;19927;-67
2022/06/20 03:23:53;;;;;;;;;;;;;;;-142.75;100.00;77233.72;4993844;28;19942;-68
2022/06/20 03:26:19;;;;;;;;;;;;;;;-142.75;100.00;77231.75;5052338;28;19959;-69
2022/06/20 03:28:45;;;;;;;;;;;;;;;-142.75;100.00;77225.84;5068679;28;19948;-67
2022/06/20 03:31:10;;;;;;;;;;;;;;;-142.75;100.00;77216.00;5067922;28;20353;-69
2022/06/20 03:33:36;;;;;;;;;;;;;;;-142.75;100.00;77212.06;5068987;28;19917;-71
2022/06/20 03:36:04;;;;;;;;;;;;;;;-142.75;100.00;77214.03;5067894;28;19921;-69
2022/06/20 03:38:30;;;;;;;;;;;;;;;-142.75;100.00;77212.06;5067518;28;19916;-67
2022/06/20 03:40:55;;;;;;;;;;;;;;;-142.75;100.00;77212.06;5069070;28;19916;-69
2022/06/20 03:43:23;;;;;;;;;;;;;;;-142.75;100.00;77217.97;5069100;28;19917;-70
2022/06/20 03:45:52;;;;;;;;;;;;;;;-142.75;100.00;77219.94;5067843;28;20429;-70
2022/06/20 03:48:22;;;;;;;;;;;;;;;-142.75;100.00;77223.88;5068605;28;19923;-67
2022/06/20 03:51:06;;;;;;;;;;;;;;;-142.75;100.00;77219.94;5068259;28;20487;-66
2022/06/20 03:53:36;;;;;;;;;;;;;;;-142.75;100.00;77214.03;4968217;28;20021;-71
2022/06/20 03:56:05;;;;;;;;;;;;;;;-142.75;100.00;77212.06;5043985;28;19916;-71
2022/06/20 03:58:36;;;;;;;;;;;;;;;-142.75;100.00;77200.25;5068637;28;20026;-68
2022/06/20 04:01:04;;;;;;;;;;;;;;;-142.75;100.00;77198.28;5068741;28;19990;-69
2022/06/20 04:03:48;;;;;;;;;;;;;;;-142.75;100.00;77192.38;5069991;28;19917;-71
2022/06/20 04:06:34;;;;;;;;;;;;;;;-142.75;100.00;77192.38;5068549;28;19948;-71
2022/06/20 04:11:51;;;;;;;;;;;;;;;-142.75;100.00;77190.41;5068744;28;20463;-72
2022/06/20 04:14:20;;;;;;;;;;;;;;;-142.75;100.00;77180.56;5068835;28;19942;-69
2022/06/20 04:16:49;;;;;;;;;;;;;;;-142.75;100.00;77184.50;5068501;28;19924;-70
2022/06/20 04:19:34;;;;;;;;;;;;;;;-142.75;100.00;77180.56;5068598;28;20317;-69
2022/06/20 04:22:03;;;;;;;;;;;;;;;-142.75;100.00;77178.59;5068517;28;19917;-70
2022/06/20 04:24:39;;;;;;;;;;;;;;;-142.75;100.00;77176.63;4966734;28;19919;-67
2022/06/20 04:27:11;;;;;;;;;;;;;;;-142.75;100.00;77182.53;4966762;28;20391;-69
2022/06/20 04:29:42;;;;;;;;;;;;;;;-142.75;100.00;77180.56;4965078;28;19918;-68
2022/06/20 04:32:10;;;;;;;;;;;;;;;-142.75;100.00;77186.47;4967659;28;20331;-71
2022/06/20 04:34:39;;;;;;;;;;;;;;;-142.75;100.00;77174.66;4967482;28;19972;-69
2022/06/20 04:37:16;;;;;;;;;;;;;;;-142.75;100.00;77188.44;4966605;28;19922;-70
2022/06/20 04:39:56;;;;;;;;;;;;;;;-142.75;100.00;77188.44;4966447;28;19964;-69
2022/06/20 04:42:44;;;;;;;;;;;;;;;-142.75;100.00;77176.63;4967803;28;19940;-69
2022/06/20 04:45:16;;;;;;;;;;;;;;;-142.75;100.00;77176.63;4964440;28;19918;-69
2022/06/20 04:47:50;;;;;;;;;;;;;;;-142.75;100.00;77168.75;4967598;28;20010;-69
2022/06/20 04:50:17;;;;;;;;;;;;;;;-142.75;100.00;77156.94;4967317;28;19953;-69
2022/06/20 04:52:43;;;;;;;;;;;;;;;-142.75;100.00;77145.13;4966456;28;19922;-69
2022/06/20 04:55:13;;;;;;;;;;;;;;;-142.75;100.00;77133.31;4967598;28;20296;-69
2022/06/20 04:57:39;;;;;;;;;;;;;;;-142.75;100.00;77121.50;4965962;28;19961;-69
2022/06/20 05:00:05;;;;;;;;;;;;;;;-142.75;100.00;77105.75;4967000;28;20324;-69
2022/06/20 05:02:30;;;;;;;;;;;;;;;-142.75;100.00;77090.00;4966249;28;19918;-69
2022/06/20 05:04:58;;;;;;;;;;;;;;;-142.75;100.00;77090.00;4967000;28;20006;-69
2022/06/20 05:07:29;;;;;;;;;;;;;;;-142.75;100.00;77082.13;4966179;28;19926;-68
2022/06/20 05:09:58;;;;;;;;;;;;;;;-142.75;100.00;77070.31;4967128;28;19926;-69
2022/06/20 05:12:26;;;;;;;;;;;;;;;-142.75;100.00;77060.47;4966463;28;20005;-69
2022/06/20 05:14:55;;;;;;;;;;;;;;;-142.75;100.00;77060.47;4966034;28;19926;-69
2022/06/20 05:17:23;;;;;;;;;;;;;;;-142.75;100.00;77058.50;4965992;28;19918;-69
2022/06/20 05:19:50;;;;;;;;;;;;;;;-142.75;100.00;77052.59;4970379;28;19918;-69
2022/06/20 05:22:19;;;;;;;;;;;;;;;-142.75;100.00;77046.69;5043503;28;20301;-68
2022/06/20 05:24:45;;;;;;;;;;;;;;;-142.75;100.00;77042.75;5071403;28;20349;-67
2022/06/20 05:27:22;;;;;;;;;;;;;;;-142.75;100.00;77034.88;5071684;28;19924;-66
2022/06/20 05:29:49;;;;;;;;;;;;;;;-142.75;100.00;77027.00;5069955;28;20548;-69
2022/06/20 05:32:22;;;;;;;;;;;;;;;-142.75;100.00;77027.00;5070001;28;19932;-69
2022/06/20 05:34:54;;;;;;;;;;;;;;;-142.75;100.00;77027.00;5072539;28;19923;-69
2022/06/20 05:37:32;;;;;;;;;;;;;;;-142.75;100.00;77019.13;5070220;28;19951;-69
2022/06/20 05:40:09;;;;;;;;;;;;;;;-142.75;100.00;77019.13;4979027;28;19925;-69
2022/06/20 05:42:34;;;;;;;;;;;;;;;-142.75;100.00;77015.19;4970293;28;19951;-71
2022/06/20 05:45:00;;;;;;;;;;;;;;;-142.75;100.00;76995.50;4970256;28;19918;-69
2022/06/20 05:47:29;;;;;;;;;;;;;;;-142.75;100.00;76983.69;4970165;28;19918;-70
2022/06/20 05:50:04;;;;;;;;;;;;;;;-142.75;100.00;76971.88;4968815;28;20426;-72
2022/06/20 05:52:30;;;;;;;;;;;;;;;-142.75;100.00;76952.19;5070118;28;19967;-69
2022/06/20 05:55:02;;;;;;;;;;;;;;;-142.75;100.00;76944.31;4989415;28;20022;-69
2022/06/20 05:57:29;;;;;;;;;;;;;;;-142.75;100.00;76924.63;4991449;28;19923;-69
2022/06/20 05:59:59;;;;;;;;;;;;;;;-142.75;100.00;76891.16;5070020;28;19920;-69
2022/06/20 06:02:36;;;;;;;;;;;;;;;-142.75;100.00;76881.31;5069696;28;19932;-71
2022/06/20 06:05:25;;;;;;;;;;;;;;;-142.75;100.00;76883.28;5069541;28;19916;-68
2022/06/20 06:07:56;;;;;;;;;;;;;;;-142.75;100.00;76881.31;5015898;28;19932;-70
2022/06/20 06:10:42;;;;;;;;;;;;;;;-142.75;100.00;76889.19;4967448;28;19926;-70
2022/06/20 06:13:11;;;;;;;;;;;;;;;-142.75;100.00;76879.34;5017541;28;19920;-70
2022/06/20 06:15:36;;;;;;;;;;;;;;;-142.75;100.00;76863.59;4994103;28;20295;-70
2022/06/20 06:18:04;;;;;;;;;;;;;;;-142.75;100.00;76839.97;4967246;28;19919;-71
2022/06/20 06:20:31;;;;;;;;;;;;;;;-142.75;100.00;76861.63;5011540;28;19973;-69
2022/06/20 06:23:03;;;;;;;;;;;;;;;-142.75;100.00;76853.75;4968453;28;19925;-69
2022/06/20 06:25:30;;;;;;;;;;;;;;;-142.75;100.00;76867.53;4968363;28;19959;-68
2022/06/20 06:27:57;;;;;;;;;;;;;;;-142.75;100.00;76881.31;4968398;28;19924;-72
2022/06/20 06:30:26;;;;;;;;;;;;;;;-142.75;100.00;76887.22;4968111;28;20017;-69
2022/06/20 06:32:56;;;;;;;;;;;;;;;-142.75;100.00;76861.63;4967355;28;19918;-69
2022/06/20 06:35:39;;;;;;;;;;;;;;;-142.75;100.00;76855.72;4968659;28;19965;-69
2022/06/20 06:38:06;;;;;;;;;;;;;;;-142.75;100.00;76861.63;4967953;28;20005;-70
2022/06/20 06:40:32;;;;;;;;;;;;;;;-142.75;100.00;76865.56;5033498;28;19916;-69
2022/06/20 06:42:59;;;;;;;;;;;;;;;-142.75;100.00;76845.88;5068723;28;19916;-69
2022/06/20 06:45:25;;;;;;;;;;;;;;;-142.75;100.00;76843.91;5069145;28;19925;-69
2022/06/20 06:48:06;;;;;;;;;;;;;;;-142.75;100.00;76863.59;4990408;28;19926;-69
2022/06/20 06:50:46;;;;;;;;;;;;;;;-142.75;100.00;76895.09;4968086;28;19922;-70
2022/06/20 06:53:23;;;;;;;;;;;;;;;-142.75;100.00;76891.16;4968146;28;19918;-70
2022/06/20 06:55:50;;;;;;;;;;;;;;;-142.75;100.00;76897.06;5036175;28;19923;-70
2022/06/20 06:58:25;;;;;;;;;;;;;;;-142.75;100.00;76916.75;4974567;28;19918;-71
2022/06/20 07:00:52;;;;;;;;;;;;;;;-142.75;100.00;76918.72;5016130;28;19923;-71
2022/06/20 07:03:17;;;;;;;;;;;;;;;-142.75;100.00;76934.47;5069443;28;19916;-69
2022/06/20 07:05:49;;;;;;;;;;;;;;;-142.75;100.00;76932.50;5067737;28;19927;-70
2022/06/20 07:08:17;;;;;;;;;;;;;;;-142.75;100.00;76928.56;5068469;28;20432;-70
2022/06/20 07:10:47;;;;;;;;;;;;;;;-142.75;100.00;76887.22;5012066;28;20292;-70
2022/06/20 07:13:20;;;;;;;;;;;;;;;-142.75;100.00;76839.97;4966729;28;19928;-71
2022/06/20 07:15:48;;;;;;;;;;;;;;;-142.75;100.00;76782.91;4968072;28;20005;-70
2022/06/20 07:18:24;;;;;;;;;;;;;;;-142.75;100.00;76723.84;5006383;28;19981;-68
2022/06/20 07:20:50;;;;;;;;;;;;;;;-142.75;100.00;76680.53;5068488;28;19924;-70
2022/06/20 07:23:17;;;;;;;;;;;;;;;-142.75;100.00;76645.09;5068644;28;19920;-71
2022/06/20 07:25:44;;;;;;;;;;;;;;;-142.75;100.00;76627.38;5068354;28;19916;-69
2022/06/20 07:28:28;;;;;;;;;;;;;;;-142.75;100.00;76607.69;5066633;28;19923;-70
2022/06/20 07:30:57;;;;;;;;;;;;;;;-142.75;100.00;76599.81;5068858;28;19982;-71
2022/06/20 07:33:27;;;;;;;;;;;;;;;-142.75;100.00;76629.34;4988722;28;19944;-70
2022/06/20 07:35:54;;;;;;;;;;;;;;;-142.75;100.00;76656.91;4969008;28;19918;-69
2022/06/20 07:38:23;;;;;;;;;;;;;;;-142.75;100.00;76688.41;5059439;28;20312;-70
2022/06/20 07:40:55;;;;;;;;;;;;;;;-142.75;100.00;76684.47;5069249;28;20299;-72
2022/06/20 07:43:26;;;;;;;;;;;;;;;-142.75;100.00;76641.16;5070043;28;19948;-70
2022/06/20 07:45:52;;;;;;;;;;;;;;;-142.75;100.00;76605.72;5069960;28;19916;-69
2022/06/20 07:48:17;;;;;;;;;;;;;;;-142.75;100.00;76586.03;5006847;28;19964;-69
2022/06/20 07:51:02;;;;;;;;;;;;;;;-142.75;100.00;76564.38;4968141;28;19970;-71
2022/06/20 07:53:32;;;;;;;;;;;;;;;-142.75;100.00;76544.69;4964731;28;20273;-71
2022/06/20 07:55:59;;;;;;;;;;;;;;;-142.75;100.00;76550.59;4968461;28;19918;-70
2022/06/20 07:58:33;;;;;;;;;;;;;;;-142.75;100.00;76597.84;4968101;28;19929;-70
2022/06/20 08:01:00;;;;;;;;;;;;;;;-142.75;100.00;76617.53;4966966;28;19925;-70
2022/06/20 08:03:36;;;;;;;;;;;;;;;-142.75;100.00;76639.19;4968711;28;19922;-70
2022/06/20 08:06:03;;;;;;;;;;;;;;;-142.75;100.00;76625.41;4968823;28;20419;-70
2022/06/20 08:08:41;;;;;;;;;;;;;;;-142.75;100.00;76588.00;4968158;28;19918;-69
2022/06/20 08:11:40;;;;;;;;;;;;;;;-142.75;100.00;76623.44;4968120;28;19930;-69
2022/06/20 08:14:02;;;;;;;;;;;;;;;-142.75;100.00;76631.31;4968065;28;20608;-70
2022/06/20 08:16:29;;;;;;;;;;;;;;;-142.75;100.00;76652.97;4973151;28;19918;-71
2022/06/20 08:18:54;;;;;;;;;;;;;;;-142.75;100.00;76686.44;4967983;28;20443;-70
2022/06/20 08:21:24;;;;;;;;;;;;;;;-142.75;100.00;76698.25;4967951;28;19925;-70
2022/06/20 08:24:09;;;;;;;;;;;;;;;-142.75;100.00;76712.03;4967527;28;19997;-70
2022/06/20 08:26:52;;;;;;;;;;;;;;;-142.75;100.00;76682.50;4966530;28;19929;-69
2022/06/20 08:29:26;;;;;;;;;;;;;;;-142.75;100.00;76680.53;4967323;28;19929;-70
2022/06/20 08:31:52;;;;;;;;;;;;;;;-142.75;100.00;76682.50;4967171;28;20291;-70
2022/06/20 08:34:24;;;;;;;;;;;;;;;-142.75;100.00;76708.09;4967011;28;19918;-70
2022/06/20 08:36:54;;;;;;;;;;;;;;;-142.75;100.00;76668.72;4968221;28;19918;-69
2022/06/20 08:39:34;;;;;;;;;;;;;;;-142.75;100.00;76582.09;4968263;28;19930;-70
2022/06/20 08:42:13;;;;;;;;;;;;;;;-142.75;100.00;76564.38;4968465;28;19922;-70
2022/06/20 08:44:57;;;;;;;;;;;;;;;-142.75;100.00;76519.13;4968463;28;20489;-69
2022/06/20 08:47:41;;;;;;;;;;;;;;;-142.75;100.00;76460.06;4968187;28;19918;-69
2022/06/20 08:50:12;;;;;;;;;;;;;;;-142.75;100.00;76426.59;4967902;28;20383;-69
2022/06/20 08:52:53;;;;;;;;;;;;;;;-142.75;100.00;76389.19;4967675;28;19925;-70
2022/06/20 08:55:21;;;;;;;;;;;;;;;-142.75;100.00;76402.97;4970069;28;19929;-70
2022/06/20 08:57:47;;;;;;;;;;;;;;;-142.75;100.00;76483.69;4969271;28;20399;-69
2022/06/20 09:00:16;;;;;;;;;;;;;;;-142.75;100.00;76454.16;4968344;28;19968;-69
2022/06/20 09:02:44;;;;;;;;;;;;;;;-142.75;100.00;76406.91;4969545;28;19922;-70
2022/06/20 09:05:15;;;;;;;;;;;;;;;-142.75;100.00;76408.88;4970207;28;19919;-71
2022/06/20 09:07:44;;;;;;;;;;;;;;;-142.75;100.00;76414.78;4970122;28;19964;-69
2022/06/20 09:10:18;;;;;;;;;;;;;;;-142.75;100.00;76385.25;4970732;28;20030;-70
2022/06/20 09:12:58;;;;;;;;;;;;;;;-142.75;100.00;76363.59;4970992;28;19925;-71
2022/06/20 09:15:32;;;;;;;;;;;;;;;-142.75;100.00;76353.78;4969560;28;19918;-69
2022/06/20 09:18:03;;;;;;;;;;;;;;;-142.75;100.00;76334.09;4970526;28;19922;-71
2022/06/20 09:20:43;;;;;;;;;;;;;;;-142.75;100.00;76278.97;4970757;28;19918;-71
2022/06/20 09:23:08;;;;;;;;;;;;;;;-142.75;90.50;76286.84;4970736;28;19960;-71
2022/06/20 09:25:44;;;;;;;;;;;;;;;-142.75;93.73;76282.91;4970766;28;19922;-70
2022/06/20 09:28:10;;;;;;;;;;;;;;;-142.75;100.00;76261.25;4970443;28;19985;-71
2022/06/20 09:30:53;;;;;;;;;;;;;;;-142.75;100.00;76275.03;4970675;28;19930;-70
2022/06/20 09:33:51;;;;;;;;;;;;;;;-142.75;100.00;76233.69;4970552;28;20307;-70
2022/06/20 09:36:22;;;;;;;;;;;;;;;-142.75;98.45;76223.84;4958934;28;19922;-70
2022/06/20 09:38:53;;;;;;;;;;;;;;;-142.75;100.00;76215.97;4970246;28;19952;-71
2022/06/20 09:41:31;;;;;;;;;;;;;;;-142.75;100.00;76196.31;4970434;28;19918;-69
2022/06/20 09:43:59;;;;;;;;;;;;;;;-142.75;100.00;76184.50;4969646;28;19922;-70
2022/06/20 09:46:47;;;;;;;;;;;;;;;-142.75;99.35;76190.41;4970139;28;19934;-71
2022/06/20 09:49:18;;;;;;;;;;;;;;;-142.75;98.07;76184.50;4967137;28;19999;-70
2022/06/20 09:51:52;;;;;;;;;;;;;;;-142.75;93.46;76188.44;4970080;28;19922;-69
2022/06/20 09:54:31;;;;;;;;;;;;;;;-142.75;100.00;76182.53;4969321;28;19919;-70
2022/06/20 09:57:16;;;;;;;;;;;;;;;-142.75;98.00;76188.44;4969125;28;20329;-70
2022/06/20 09:59:47;;;;;;;;;;;;;;;-142.75;95.63;76206.13;5044908;28;20003;-70
2022/06/20 10:02:16;;;;;;;;;;;;;;;-142.75;100.00;76184.50;5071487;28;20443;-70
2022/06/20 10:04:58;;;;;;;;;;;;;;;-142.75;100.00;76172.69;5071815;28;19961;-70
2022/06/20 10:07:38;;;;;;;;;;;;;;;-142.75;92.60;76235.66;5070092;28;19923;-70
2022/06/20 10:10:04;;;;;;;;;;;;;;;-142.75;95.11;76214.00;5070874;28;19927;-71
2022/06/20 10:12:35;;;;;;;;;;;;;;;-142.75;100.00;76192.38;5071472;28;19932;-69
2022/06/20 10:15:06;;;;;;;;;;;;;;;-142.75;93.54;76184.50;5069839;28;19920;-69
2022/06/20 10:17:38;;;;;;;;;;;;;;;-142.75;93.57;76196.31;5071281;28;19999;-70
2022/06/20 10:20:06;;;;;;;;;;;;;;;-142.75;95.67;76164.81;5070580;28;20058;-69
2022/06/20 10:22:48;;;;;;;;;;;;;;;-142.75;98.19;76129.38;5071410;28;19938;-69
2022/06/20 10:25:26;;;;;;;;;;;;;;;-142.75;93.25;76149.06;5071358;28;20390;-70
2022/06/20 10:27:51;;;;;;;;;;;;;;;-142.75;95.94;76164.81;5070792;28;19956;-70
2022/06/20 10:30:34;;;;;;;;;;;;;;;-142.75;90.15;76188.44;5070678;28;19963;-70
2022/06/20 10:33:03;;;;;;;;;;;;;;;-142.75;94.14;76186.47;5072449;28;19920;-69
2022/06/20 10:35:46;;;;;;;;;;;;;;;-142.75;89.63;76239.59;5072226;28;19916;-70
2022/06/20 10:38:12;;;;;;;;;;;;;;;-142.75;86.92;76239.59;5071649;28;19995;-70
2022/06/20 10:40:53;;;;;;;;;;;;;;;-142.75;91.31;76235.66;5071075;28;19956;-69
2022/06/20 10:43:36;;;;;;;;;;;;;;;-142.75;94.43;76214.00;5071902;28;19916;-70
2022/06/20 10:46:07;;;;;;;;;;;;;;;-142.75;98.04;76259.28;5071400;28;20378;-69
2022/06/20 10:48:36;;;;;;;;;;;;;;;-142.75;100.00;76247.47;5071109;28;20373;-70
2022/06/20 10:51:11;;;;;;;;;;;;;;;-142.75;100.00;76257.31;5071502;28;20336;-70
2022/06/20 10:53:51;;;;;;;;;;;;;;;-142.75;100.00;76231.72;5071399;28;19916;-70
2022/06/20 10:56:19;;;;;;;;;;;;;;;-142.75;99.59;76294.72;5071637;28;19924;-69
2022/06/20 10:59:02;;;;;;;;;;;;;;;-142.75;100.00;76340.00;5071034;28;20011;-70
2022/06/20 11:01:36;;;;;;;;;;;;;;;-142.75;100.00;76401.00;5070792;28;20282;-70
2022/06/20 11:04:20;;;;;;;;;;;;;;;-142.75;100.00;76434.47;5070331;28;19916;-69
2022/06/20 11:06:48;;;;;;;;;;;;;;;-142.75;100.00;76367.53;5071496;28;19916;-71
2022/06/20 11:09:13;;;;;;;;;;;;;;;-142.75;100.00;76292.75;5070773;28;20003;-69
2022/06/20 11:11:51;;;;;;;;;;;;;;;-142.75;100.00;76243.53;5070945;28;20022;-70
2022/06/20 11:14:37;;;;;;;;;;;;;;;-142.75;96.69;76341.97;5070986;28;19999;-70
2022/06/20 11:17:02;;;;;;;;;;;;;;;-142.75;100.00;76347.84;5068979;28;20006;-69
2022/06/20 11:19:37;;;;;;;;;;;;;;;-142.75;100.00;76357.69;5070584;28;20042;-68
2022/06/20 11:22:21;;;;;;;;;;;;;;;-142.75;100.00;76365.56;5070921;28;19920;-68
2022/06/20 11:24:49;;;;;;;;;;;;;;;-142.75;100.00;76290.78;5070890;28;19917;-68
2022/06/20 11:27:24;;;;;;;;;;;;;;;-142.75;100.00;76259.28;5071396;28;19921;-69
2022/06/20 11:29:57;;;;;;;;;;;;;;;-142.75;98.86;76245.50;5071134;28;20010;-69
2022/06/20 11:32:32;;;;;;;;;;;;;;;-142.75;96.89;76180.56;5070217;28;19990;-69
2022/06/20 11:34:57;;;;;;;;;;;;;;;-142.75;81.45;76212.03;5071601;28;19951;-69
2022/06/20 11:37:26;;;;;;;;;;;;;;;-142.75;88.52;76341.97;5070115;28;19997;-69
2022/06/20 11:40:00;;;;;;;;;;;;;;;-142.75;96.38;76387.22;5071249;28;20332;-69
2022/06/20 11:42:45;;;;;;;;;;;;;;;-142.75;98.72;76426.59;5071384;28;20286;-69
2022/06/20 11:45:16;;;;;;;;;;;;;;;-142.75;100.00;76436.44;5071253;28;19917;-69
2022/06/20 11:47:54;;;;;;;;;;;;;;;-142.75;98.25;76393.13;5071145;28;19946;-67
2022/06/20 11:50:46;;;;;;;;;;;;;;;-142.75;100.00;76326.22;5070926;28;20491;-69
2022/06/20 11:53:21;;;;;;;;;;;;;;;-142.75;89.21;76349.81;5069314;28;19923;-69
2022/06/20 11:55:47;;;;;;;;;;;;;;;-142.75;95.04;76355.72;5071080;28;19916;-67
2022/06/20 11:58:28;;;;;;;;;;;;;;;-142.75;100.00;76436.44;5070950;28;20007;-68
2022/06/20 12:00:57;;;;;;;;;;;;;;;-142.75;99.37;76389.19;4969622;28;19925;-68
2022/06/20 12:03:48;;;;;;;;;;;;;;;-142.75;100.00;76424.63;4970021;28;19926;-70
2022/06/20 12:06:33;;;;;;;;;;;;;;;-142.75;100.00;76452.19;4968511;28;20376;-69
2022/06/20 12:09:13;;;;;;;;;;;;;;;-142.75;100.00;76479.75;4961067;28;19917;-69
2022/06/20 12:11:52;;;;;;;;;;;;;;;-142.75;100.00;76456.13;4969523;28;19922;-69
2022/06/20 12:14:30;;;;;;;;;;;;;;;-142.75;100.00;76454.16;4969662;28;19966;-69
2022/06/20 12:17:05;;;;;;;;;;;;;;;-142.75;100.00;76464.00;4968435;28;19918;-69
2022/06/20 12:25:22;;;;;;;;;;;;;;;-142.75;100.00;76519.13;4969529;28;19924;-69
2022/06/20 12:27:47;;;;;;;;;;;;;;;-142.75;100.00;76495.50;4970031;28;20375;-69
2022/06/20 12:30:14;;;;;;;;;;;;;;;-142.75;100.00;76448.25;4972723;28;20005;-68
2022/06/20 12:32:40;;;;;;;;;;;;;;;-142.75;100.00;76418.72;4973042;28;19955;-69
2022/06/20 12:35:26;;;;;;;;;;;;;;;-142.75;100.00;76436.44;4972995;28;20387;-69
2022/06/20 12:38:08;;;;;;;;;;;;;;;-142.75;100.00;76456.13;4968583;28;19969;-67
2022/06/20 12:40:43;;;;;;;;;;;;;;;-142.75;100.00;76448.25;4971657;28;19979;-69
2022/06/20 12:43:21;;;;;;;;;;;;;;;-142.75;100.00;76475.81;4972842;28;19918;-69
2022/06/20 12:45:48;;;;;;;;;;;;;;;-142.75;100.00;76464.00;4972771;28;19925;-70
2022/06/20 12:48:32;;;;;;;;;;;;;;;-142.75;100.00;76452.19;4972584;28;19922;-70
2022/06/20 12:51:22;;;;;;;;;;;;;;;-142.75;100.00;76483.69;4972544;28;20388;-69